createdAt,value
2017-10-27T00:02:24.135Z,2.67
2017-10-27T00:04:53.156Z,2.20
2017-10-27T00:07:20.810Z,2.30
2017-10-27T00:09:48.315Z,1.80
2017-10-27T00:12:15.823Z,2.00
2017-10-27T00:14:43.800Z,1.93
2017-10-27T00:17:12.055Z,2.50
2017-10-27T00:19:39.547Z,2.30
2017-10-27T00:22:07.260Z,2.07
2017-10-27T00:24:35.171Z,1.70
2017-10-27T00:27:02.667Z,2.30
2017-10-27T00:29:30.163Z,1.83
2017-10-27T00:31:58.423Z,2.40
2017-10-27T00:34:25.923Z,2.03
2017-10-27T00:36:53.542Z,2.40
2017-10-27T00:39:21.202Z,2.40
2017-10-27T00:41:49.101Z,2.23
2017-10-27T00:44:16.625Z,2.27
2017-10-27T00:46:44.135Z,1.90
2017-10-27T00:49:13.135Z,2.13
2017-10-27T00:51:41.443Z,2.33
2017-10-27T00:54:09.343Z,2.03
2017-10-27T00:56:37.069Z,2.10
2017-10-27T00:59:04.734Z,1.90
2017-10-27T01:01:32.254Z,2.10
2017-10-27T01:04:00.643Z,2.00
2017-10-27T01:06:28.157Z,2.30
2017-10-27T01:08:55.769Z,1.80
2017-10-27T01:11:23.301Z,1.70
2017-10-27T01:13:52.140Z,1.87
2017-10-27T01:16:20.585Z,1.87
2017-10-27T01:18:48.250Z,1.90
2017-10-27T01:21:16.319Z,1.73
2017-10-27T01:23:43.815Z,1.60
2017-10-27T01:26:11.307Z,1.73
2017-10-27T01:28:39.569Z,1.73
2017-10-27T01:31:07.844Z,1.73
2017-10-27T01:33:35.351Z,1.93
2017-10-27T01:36:02.847Z,2.13
2017-10-27T01:38:31.691Z,2.00
2017-10-27T01:40:59.200Z,2.00
2017-10-27T01:43:26.894Z,1.80
2017-10-27T01:45:54.949Z,1.87
2017-10-27T01:48:23.021Z,1.40
2017-10-27T01:50:51.297Z,1.93
2017-10-27T01:53:18.819Z,1.50
2017-10-27T01:55:47.088Z,1.93
2017-10-27T01:58:15.351Z,2.33
2017-10-27T02:00:42.944Z,1.93
2017-10-27T02:03:10.611Z,1.47
2017-10-27T02:05:38.111Z,2.00
2017-10-27T02:08:05.716Z,1.87
2017-10-27T02:10:33.215Z,1.60
2017-10-27T02:13:00.707Z,1.73
2017-10-27T02:15:29.081Z,1.50
2017-10-27T02:17:56.582Z,1.57
2017-10-27T02:20:24.086Z,1.60
2017-10-27T02:22:53.099Z,2.00
2017-10-27T02:25:20.595Z,1.70
2017-10-27T02:27:48.103Z,1.77
2017-10-27T02:30:16.485Z,1.40
2017-10-27T02:32:43.987Z,1.73
2017-10-27T02:35:11.478Z,2.00
2017-10-27T02:37:40.318Z,1.80
2017-10-27T02:40:08.754Z,1.80
2017-10-27T02:42:36.412Z,2.27
2017-10-27T02:45:04.068Z,1.40
2017-10-27T02:47:32.343Z,1.23
2017-10-27T02:50:00.003Z,1.37
2017-10-27T02:52:27.502Z,1.20
2017-10-27T02:54:55.760Z,1.57
2017-10-27T02:57:23.399Z,1.30
2017-10-27T02:59:50.893Z,1.70
2017-10-27T03:02:18.415Z,1.57
2017-10-27T03:04:45.928Z,1.47
2017-10-27T03:07:13.468Z,1.60
2017-10-27T03:09:40.976Z,1.70
2017-10-27T03:12:08.495Z,1.30
2017-10-27T03:14:35.993Z,1.53
2017-10-27T03:17:04.470Z,1.27
2017-10-27T03:19:31.972Z,1.77
2017-10-27T03:22:00.900Z,1.63
2017-10-27T03:24:28.451Z,1.60
2017-10-27T03:26:57.431Z,1.37
2017-10-27T03:29:25.699Z,2.03
2017-10-27T03:31:53.977Z,1.47
2017-10-27T03:34:21.955Z,1.70
2017-10-27T03:36:49.617Z,2.17
2017-10-27T03:39:17.119Z,1.97
2017-10-27T03:41:45.382Z,2.03
2017-10-27T03:44:12.872Z,2.10
2017-10-27T03:46:40.367Z,2.00
2017-10-27T03:49:08.627Z,2.00
2017-10-27T03:51:36.123Z,1.60
2017-10-27T03:54:04.046Z,2.07
2017-10-27T03:56:31.700Z,1.70
2017-10-27T03:58:59.975Z,2.63
2017-10-27T04:01:27.640Z,1.97
2017-10-27T04:03:55.740Z,1.77
2017-10-27T04:06:24.007Z,2.00
2017-10-27T04:08:51.517Z,2.30
2017-10-27T04:11:19.787Z,1.93
2017-10-27T04:13:48.043Z,1.83
2017-10-27T04:16:15.535Z,1.80
2017-10-27T04:18:43.426Z,2.00
2017-10-27T04:21:12.316Z,2.27
2017-10-27T04:23:39.853Z,1.63
2017-10-27T04:26:07.368Z,2.10
2017-10-27T04:28:36.370Z,2.30
2017-10-27T04:31:04.039Z,2.00
2017-10-27T04:33:32.891Z,2.20
2017-10-27T04:36:00.409Z,2.00
2017-10-27T04:38:28.012Z,2.03
2017-10-27T04:40:56.651Z,2.20
2017-10-27T04:43:25.418Z,2.50
2017-10-27T04:45:52.911Z,3.00
2017-10-27T04:48:20.407Z,1.70
2017-10-27T04:50:48.673Z,2.90
2017-10-27T04:53:16.962Z,2.23
2017-10-27T04:55:45.595Z,2.17
2017-10-27T04:58:13.207Z,2.13
2017-10-27T05:00:40.867Z,2.27
2017-10-27T05:03:08.383Z,2.30
2017-10-27T05:05:36.651Z,2.53
2017-10-27T05:08:04.163Z,2.33
2017-10-27T05:10:31.651Z,2.60
2017-10-27T05:12:59.167Z,2.20
2017-10-27T05:15:27.075Z,2.57
2017-10-27T05:18:01.037Z,2.67
2017-10-27T05:20:34.130Z,2.43
2017-10-27T05:23:07.387Z,1.70
2017-10-27T05:25:35.687Z,2.37
2017-10-27T05:28:03.216Z,2.60
2017-10-27T05:30:31.843Z,2.63
2017-10-27T05:32:59.371Z,2.40
2017-10-27T05:35:26.863Z,2.27
2017-10-27T05:37:55.222Z,2.73
2017-10-27T05:40:22.719Z,2.50
2017-10-27T05:42:50.311Z,2.63
2017-10-27T05:45:17.804Z,2.27
2017-10-27T05:47:45.323Z,2.70
2017-10-27T05:50:13.702Z,2.67
2017-10-27T05:52:41.360Z,3.00
2017-10-27T05:55:09.016Z,2.73
2017-10-27T05:57:36.915Z,2.73
2017-10-27T06:00:04.410Z,3.90
2017-10-27T06:02:33.258Z,3.40
2017-10-27T06:05:00.772Z,4.07
2017-10-27T06:07:29.680Z,3.90
2017-10-27T06:09:57.180Z,4.00
2017-10-27T06:12:24.701Z,4.43
2017-10-27T06:14:52.334Z,4.83
2017-10-27T06:17:19.987Z,4.27
2017-10-27T06:19:48.267Z,5.33
2017-10-27T06:22:15.769Z,5.50
2017-10-27T06:24:43.391Z,6.17
2017-10-27T06:27:11.050Z,5.73
2017-10-27T06:29:39.354Z,5.83
2017-10-27T06:32:07.375Z,5.47
2017-10-27T06:34:35.634Z,4.70
2017-10-27T06:37:04.266Z,5.60
2017-10-27T06:39:32.526Z,5.90
2017-10-27T06:42:00.880Z,5.77
2017-10-27T06:44:29.975Z,6.07
2017-10-27T06:46:57.648Z,7.20
2017-10-27T06:49:25.143Z,9.07
2017-10-27T06:51:52.639Z,8.43
2017-10-27T06:54:21.012Z,7.57
2017-10-27T06:56:48.675Z,8.00
2017-10-27T06:59:16.335Z,8.53
2017-10-27T07:01:44.975Z,8.77
2017-10-27T07:04:14.117Z,7.67
2017-10-27T07:06:41.768Z,8.50
2017-10-27T07:09:09.778Z,9.20
2017-10-27T07:11:37.273Z,8.40
2017-10-27T07:14:06.187Z,8.13
2017-10-27T07:16:33.695Z,8.57
2017-10-27T07:19:01.215Z,8.13
2017-10-27T07:21:28.743Z,9.57
2017-10-27T07:23:56.400Z,9.13
2017-10-27T07:26:24.006Z,9.33
2017-10-27T07:28:53.157Z,8.67
2017-10-27T07:31:21.230Z,8.93
2017-10-27T07:33:49.303Z,9.30
2017-10-27T07:36:17.576Z,8.40
2017-10-27T07:38:46.231Z,8.40
2017-10-27T07:41:13.823Z,9.47
2017-10-27T07:43:42.170Z,8.47
2017-10-27T07:46:09.667Z,10.47
2017-10-27T07:48:37.258Z,9.00
2017-10-27T07:51:04.876Z,8.13
2017-10-27T07:53:32.410Z,9.77
2017-10-27T07:56:00.312Z,8.53
2017-10-27T07:58:27.939Z,8.37
2017-10-27T08:00:55.583Z,8.67
2017-10-27T08:03:23.111Z,8.10
2017-10-27T08:05:51.111Z,9.00
2017-10-27T08:08:18.767Z,9.37
2017-10-27T08:10:47.048Z,8.90
2017-10-27T08:13:14.556Z,10.00
2017-10-27T08:15:42.058Z,10.97
2017-10-27T08:18:09.559Z,10.27
2017-10-27T08:20:38.695Z,10.97
2017-10-27T08:23:07.542Z,11.37
2017-10-27T08:25:36.407Z,11.30
2017-10-27T08:28:03.912Z,10.03
2017-10-27T08:30:31.411Z,9.87
2017-10-27T08:32:58.920Z,11.10
2017-10-27T08:35:26.439Z,9.53
2017-10-27T08:37:55.455Z,9.20
2017-10-27T08:40:23.723Z,9.40
2017-10-27T08:42:51.226Z,8.30
2017-10-27T08:45:18.775Z,8.90
2017-10-27T08:47:47.623Z,7.40
2017-10-27T08:50:15.122Z,8.60
2017-10-27T08:52:42.622Z,8.37
2017-10-27T08:55:10.123Z,7.50
2017-10-27T08:57:37.614Z,6.40
2017-10-27T09:00:05.137Z,5.80
2017-10-27T09:02:32.635Z,6.23
2017-10-27T09:05:00.142Z,6.80
2017-10-27T09:07:27.636Z,6.20
2017-10-27T09:09:55.535Z,5.47
2017-10-27T09:12:23.035Z,6.17
2017-10-27T09:14:50.553Z,5.13
2017-10-27T09:17:18.814Z,4.03
2017-10-27T09:19:47.738Z,3.73
2017-10-27T09:22:15.246Z,4.30
2017-10-27T09:24:42.767Z,3.27
2017-10-27T09:27:10.267Z,2.80
2017-10-27T09:29:38.867Z,3.03
2017-10-27T09:32:06.356Z,2.07
2017-10-27T09:34:34.751Z,2.53
2017-10-27T09:37:03.395Z,2.33
2017-10-27T09:39:30.914Z,2.83
2017-10-27T09:41:59.004Z,2.77
2017-10-27T09:44:26.672Z,2.40
2017-10-27T09:46:54.939Z,2.57
2017-10-27T09:49:22.598Z,2.50
2017-10-27T09:51:50.103Z,2.70
2017-10-27T09:54:17.622Z,2.23
2017-10-27T09:56:45.178Z,2.90
2017-10-27T09:59:13.091Z,2.13
2017-10-27T10:01:40.579Z,2.50
2017-10-27T10:04:08.098Z,2.17
2017-10-27T10:06:35.595Z,2.20
2017-10-27T10:09:03.112Z,1.70
2017-10-27T10:11:31.130Z,1.87
2017-10-27T10:14:00.043Z,2.10
2017-10-27T10:16:27.660Z,2.47
2017-10-27T10:18:55.171Z,2.30
2017-10-27T10:21:23.075Z,2.60
2017-10-27T10:23:51.359Z,2.10
2017-10-27T10:26:19.323Z,1.67
2017-10-27T10:28:46.979Z,1.67
2017-10-27T10:31:15.247Z,2.17
2017-10-27T10:33:42.758Z,2.30
2017-10-27T10:36:10.264Z,2.00
2017-10-27T10:38:37.835Z,2.60
2017-10-27T10:41:05.330Z,2.40
2017-10-27T10:43:32.828Z,2.03
2017-10-27T10:46:01.083Z,1.90
2017-10-27T10:48:29.475Z,2.63
2017-10-27T10:50:56.967Z,2.00
2017-10-27T10:53:24.592Z,1.80
2017-10-27T10:55:52.177Z,1.60
2017-10-27T10:58:19.683Z,1.70
2017-10-27T11:00:47.376Z,2.30
2017-10-27T11:03:16.007Z,1.90
2017-10-27T11:05:43.517Z,1.73
2017-10-27T11:08:11.798Z,1.67
2017-10-27T11:10:39.290Z,2.07
2017-10-27T11:13:06.888Z,1.83
2017-10-27T11:15:34.403Z,2.30
2017-10-27T11:18:01.904Z,2.10
2017-10-27T11:20:29.451Z,2.10
2017-10-27T11:22:57.124Z,2.50
2017-10-27T11:25:24.650Z,2.37
2017-10-27T11:27:53.460Z,2.30
2017-10-27T11:30:20.999Z,2.33
2017-10-27T11:32:48.491Z,2.63
2017-10-27T11:35:17.515Z,2.33
2017-10-27T11:37:45.111Z,2.87
2017-10-27T11:40:13.596Z,3.17
2017-10-27T11:42:42.068Z,2.67
2017-10-27T11:45:09.595Z,3.20
2017-10-27T11:47:37.867Z,2.60
2017-10-27T11:50:05.377Z,2.70
2017-10-27T11:52:32.883Z,3.20
2017-10-27T11:55:00.794Z,2.80
2017-10-27T11:57:28.287Z,2.73
2017-10-27T11:59:55.879Z,2.40
2017-10-27T12:02:23.375Z,2.30
2017-10-27T12:04:50.891Z,2.10
2017-10-27T12:07:19.267Z,2.17
2017-10-27T12:09:46.779Z,2.83
2017-10-27T12:12:15.630Z,2.20
2017-10-27T12:14:43.160Z,2.23
2017-10-27T12:17:11.794Z,2.87
2017-10-27T12:19:39.315Z,2.63
2017-10-27T12:22:06.816Z,2.40
2017-10-27T12:24:34.340Z,2.70
2017-10-27T12:27:01.841Z,2.43
2017-10-27T12:29:29.766Z,2.50
2017-10-27T12:31:57.267Z,3.00
2017-10-27T12:34:24.942Z,2.43
2017-10-27T12:36:52.598Z,2.57
2017-10-27T12:39:20.862Z,3.07
2017-10-27T12:41:48.362Z,2.30
2017-10-27T12:44:15.876Z,2.47
2017-10-27T12:46:44.745Z,3.07
2017-10-27T12:49:13.746Z,3.00
2017-10-27T12:51:41.263Z,2.70
2017-10-27T12:54:08.763Z,2.63
2017-10-27T12:56:37.027Z,2.50
2017-10-27T12:59:05.415Z,2.30
2017-10-27T13:01:33.679Z,2.50
2017-10-27T13:04:02.311Z,1.80
2017-10-27T13:06:29.847Z,3.00
2017-10-27T13:08:57.356Z,2.40
2017-10-27T13:11:25.675Z,2.40
2017-10-27T13:13:53.168Z,2.30
2017-10-27T13:16:20.675Z,2.47
2017-10-27T13:18:48.180Z,2.80
2017-10-27T13:21:16.467Z,2.10
2017-10-27T13:23:44.355Z,2.23
2017-10-27T13:26:12.643Z,1.83
2017-10-27T13:28:42.374Z,1.83
2017-10-27T13:31:09.904Z,1.80
2017-10-27T13:33:38.750Z,1.80
2017-10-27T13:36:06.271Z,2.30
2017-10-27T13:38:35.122Z,2.03
2017-10-27T13:41:03.406Z,2.50
2017-10-27T13:43:30.903Z,2.60
2017-10-27T13:45:58.426Z,1.90
2017-10-27T13:48:25.948Z,2.70
2017-10-27T13:50:53.472Z,2.00
2017-10-27T13:53:21.018Z,2.00
2017-10-27T13:55:49.357Z,2.17
2017-10-27T13:58:16.866Z,2.30
2017-10-27T14:00:44.383Z,1.90
2017-10-27T14:03:11.895Z,2.50
2017-10-27T14:05:39.808Z,1.90
2017-10-27T14:08:07.708Z,1.90
2017-10-27T14:10:35.254Z,1.57
2017-10-27T14:13:03.546Z,1.90
2017-10-27T14:15:31.068Z,1.27
2017-10-27T14:17:58.578Z,1.10
2017-10-27T14:20:26.501Z,1.10
2017-10-27T14:22:54.009Z,1.30
2017-10-27T14:25:21.532Z,1.40
2017-10-27T14:27:49.034Z,1.43
2017-10-27T14:30:16.560Z,1.17
2017-10-27T14:32:44.073Z,1.00
2017-10-27T14:35:11.998Z,1.00
2017-10-27T14:37:40.342Z,1.17
2017-10-27T14:40:09.505Z,1.20
2017-10-27T14:42:37.023Z,1.10
2017-10-27T14:45:04.656Z,1.40
2017-10-27T14:47:32.927Z,1.60
2017-10-27T14:50:01.268Z,1.23
2017-10-27T14:52:29.899Z,1.40
2017-10-27T14:54:58.755Z,1.13
2017-10-27T14:57:26.273Z,1.17
2017-10-27T14:59:53.807Z,1.20
2017-10-27T15:02:21.703Z,1.20
2017-10-27T15:04:49.229Z,1.80
2017-10-27T15:07:17.892Z,1.33
2017-10-27T15:09:46.197Z,1.37
2017-10-27T15:12:13.712Z,1.97
2017-10-27T15:14:42.025Z,1.50
2017-10-27T15:17:10.308Z,1.60
2017-10-27T15:19:37.830Z,1.63
2017-10-27T15:22:05.351Z,2.10
2017-10-27T15:24:34.199Z,1.60
2017-10-27T15:27:01.731Z,1.67
2017-10-27T15:29:29.628Z,1.20
2017-10-27T15:31:57.151Z,1.67
2017-10-27T15:34:24.655Z,1.20
2017-10-27T15:36:52.171Z,1.13
2017-10-27T15:39:19.676Z,1.33
2017-10-27T15:41:47.619Z,1.50
2017-10-27T15:44:15.123Z,1.53
2017-10-27T15:46:42.648Z,1.67
2017-10-27T15:49:10.152Z,1.80
2017-10-27T15:51:37.683Z,3.07
2017-10-27T15:54:05.195Z,1.93
2017-10-27T15:56:32.719Z,2.20
2017-10-27T15:59:00.620Z,1.70
2017-10-27T16:01:28.144Z,2.40
2017-10-27T16:03:57.155Z,2.53
2017-10-27T16:06:24.683Z,2.40
2017-10-27T16:08:53.697Z,2.77
2017-10-27T16:11:21.215Z,3.37
2017-10-27T16:13:50.066Z,3.07
2017-10-27T16:16:17.586Z,2.83
2017-10-27T16:18:46.218Z,3.60
2017-10-27T16:21:13.743Z,3.87
2017-10-27T16:23:42.003Z,2.90
2017-10-27T16:26:09.515Z,2.77
2017-10-27T16:28:37.016Z,3.77
2017-10-27T16:31:04.527Z,3.40
2017-10-27T16:33:32.030Z,3.40
2017-10-27T16:35:59.547Z,2.97
2017-10-27T16:38:27.449Z,2.70
2017-10-27T16:40:55.759Z,2.10
2017-10-27T16:43:23.251Z,2.47
2017-10-27T16:45:51.511Z,2.60
2017-10-27T16:48:19.006Z,3.23
2017-10-27T16:50:46.511Z,3.10
2017-10-27T16:53:14.795Z,2.93
2017-10-27T16:55:43.063Z,2.90
2017-10-27T16:58:11.376Z,6.60
2017-10-27T17:00:38.875Z,4.57
2017-10-27T17:03:06.390Z,3.77
2017-10-27T17:05:33.892Z,5.67
2017-10-27T17:08:02.180Z,7.20
2017-10-27T17:10:30.471Z,4.07
2017-10-27T17:12:57.996Z,3.80
2017-10-27T17:15:26.651Z,3.70
2017-10-27T17:17:54.661Z,3.30
2017-10-27T17:20:22.155Z,3.50
2017-10-27T17:22:49.668Z,5.07
2017-10-27T17:25:17.559Z,5.63
2017-10-27T17:27:45.080Z,6.57
2017-10-27T17:30:12.968Z,5.87
2017-10-27T17:32:40.498Z,5.33
2017-10-27T17:35:09.343Z,4.90
2017-10-27T17:37:36.858Z,4.57
2017-10-27T17:40:05.851Z,4.60
2017-10-27T17:42:33.775Z,3.97
2017-10-27T17:45:01.272Z,3.20
2017-10-27T17:47:28.803Z,3.07
2017-10-27T17:49:56.691Z,4.37
2017-10-27T17:52:24.212Z,3.07
2017-10-27T17:54:53.220Z,4.70
2017-10-27T17:57:21.515Z,3.83
2017-10-27T17:59:49.406Z,2.67
2017-10-27T18:02:16.904Z,2.33
2017-10-27T18:04:45.163Z,2.67
2017-10-27T18:07:13.807Z,2.80
2017-10-27T18:09:41.318Z,3.00
2017-10-27T18:12:09.207Z,2.60
2017-10-27T18:14:37.127Z,3.60
2017-10-27T18:17:04.627Z,2.93
2017-10-27T18:19:33.287Z,3.30
2017-10-27T18:22:01.557Z,2.47
2017-10-27T18:24:29.466Z,2.57
2017-10-27T18:26:56.963Z,2.67
2017-10-27T18:29:24.488Z,3.00
2017-10-27T18:31:52.383Z,3.17
2017-10-27T18:34:19.899Z,3.87
2017-10-27T18:36:48.161Z,4.07
2017-10-27T18:39:16.844Z,5.80
2017-10-27T18:41:45.104Z,3.90
2017-10-27T18:44:12.643Z,3.03
2017-10-27T18:46:40.140Z,2.43
2017-10-27T18:49:07.651Z,3.90
2017-10-27T18:51:35.554Z,2.90
2017-10-27T18:54:03.087Z,3.20
2017-10-27T18:56:31.362Z,3.57
2017-10-27T18:58:58.879Z,3.77
2017-10-27T19:01:26.379Z,3.87
2017-10-27T19:03:53.894Z,3.93
2017-10-27T19:06:21.427Z,3.30
2017-10-27T19:08:48.953Z,3.63
2017-10-27T19:11:17.226Z,4.40
2017-10-27T19:13:45.909Z,3.83
2017-10-27T19:16:13.415Z,3.93
2017-10-27T19:18:42.271Z,3.83
2017-10-27T19:21:09.782Z,4.20
2017-10-27T19:23:37.276Z,4.10
2017-10-27T19:26:04.787Z,4.30
2017-10-27T19:28:33.419Z,4.00
2017-10-27T19:31:01.743Z,4.03
2017-10-27T19:33:29.643Z,3.90
2017-10-27T19:35:57.160Z,3.57
2017-10-27T19:38:24.662Z,4.17
2017-10-27T19:40:52.180Z,4.07
2017-10-27T19:43:20.440Z,4.83
2017-10-27T19:45:48.352Z,4.40
2017-10-27T19:48:17.203Z,3.77
2017-10-27T19:50:46.079Z,4.30
2017-10-27T19:53:14.719Z,4.40
2017-10-27T19:55:42.227Z,4.47
2017-10-27T19:58:09.720Z,4.30
2017-10-27T20:00:38.022Z,4.97
2017-10-27T20:03:05.507Z,4.30
2017-10-27T20:05:34.353Z,4.57
2017-10-27T20:08:02.639Z,4.27
2017-10-27T20:10:30.163Z,4.60
2017-10-27T20:12:57.675Z,4.47
2017-10-27T20:15:26.305Z,4.20
2017-10-27T20:17:54.600Z,4.80
2017-10-27T20:20:22.095Z,4.70
2017-10-27T20:22:49.611Z,4.87
2017-10-27T20:25:17.105Z,4.60
2017-10-27T20:27:44.620Z,4.30
2017-10-27T20:30:12.894Z,5.07
2017-10-27T20:32:40.807Z,5.37
2017-10-27T20:35:09.438Z,4.30
2017-10-27T20:37:36.945Z,4.90
2017-10-27T20:40:05.578Z,4.23
2017-10-27T20:42:33.100Z,5.17
2017-10-27T20:45:00.611Z,5.27
2017-10-27T20:47:28.888Z,6.20
2017-10-27T20:49:56.378Z,5.27
2017-10-27T20:52:23.896Z,5.03
2017-10-27T20:54:51.387Z,4.83
2017-10-27T20:57:20.035Z,5.03
2017-10-27T20:59:48.290Z,5.53
2017-10-27T21:02:15.789Z,4.83
2017-10-27T21:04:43.283Z,4.43
2017-10-27T21:07:11.174Z,5.13
2017-10-27T21:09:39.084Z,5.90
2017-10-27T21:12:07.707Z,5.40
2017-10-27T21:14:35.199Z,4.90
2017-10-27T21:17:02.693Z,5.10
2017-10-27T21:19:30.187Z,4.60
2017-10-27T21:21:58.822Z,5.53
2017-10-27T21:24:26.327Z,5.23
2017-10-27T21:26:54.219Z,5.83
2017-10-27T21:29:21.719Z,5.43
2017-10-27T21:31:49.608Z,4.67
2017-10-27T21:34:17.115Z,5.00
2017-10-27T21:36:44.615Z,5.10
2017-10-27T21:39:12.879Z,6.00
2017-10-27T21:41:40.370Z,5.20
2017-10-27T21:44:07.864Z,4.63
2017-10-27T21:46:35.355Z,5.40
2017-10-27T21:49:03.609Z,5.63
2017-10-27T21:51:32.462Z,6.10
2017-10-27T21:53:59.979Z,4.87
2017-10-27T21:56:28.843Z,5.40
2017-10-27T21:58:56.338Z,5.67
2017-10-27T22:01:23.842Z,5.30
2017-10-27T22:03:52.106Z,5.67
2017-10-27T22:06:19.600Z,5.30
2017-10-27T22:08:47.868Z,6.00
2017-10-27T22:11:15.388Z,5.40
2017-10-27T22:13:42.875Z,5.23
2017-10-27T22:16:11.499Z,5.97
2017-10-27T22:18:39.400Z,4.63
2017-10-27T22:21:07.298Z,4.83
2017-10-27T22:23:34.795Z,5.60
2017-10-27T22:26:02.284Z,5.67
2017-10-27T22:28:29.782Z,5.60
2017-10-27T22:30:58.572Z,5.83
2017-10-27T22:33:27.429Z,5.93
2017-10-27T22:35:54.934Z,5.27
2017-10-27T22:38:22.441Z,4.60
2017-10-27T22:41:02.536Z,5.00
2017-10-27T22:43:30.019Z,5.80
2017-10-27T22:45:57.512Z,5.37
2017-10-27T22:48:25.015Z,6.80
2017-10-27T22:50:53.275Z,5.73
2017-10-27T22:53:20.775Z,6.23
2017-10-27T22:55:49.766Z,6.20
2017-10-27T22:58:18.403Z,5.90
2017-10-27T23:00:46.665Z,5.80
2017-10-27T23:03:14.937Z,6.80
2017-10-27T23:05:42.436Z,6.33
2017-10-27T23:08:15.654Z,5.97
2017-10-27T23:10:43.146Z,6.13
2017-10-27T23:13:10.671Z,7.13
2017-10-27T23:15:38.169Z,7.33
2017-10-27T23:18:05.691Z,5.90
2017-10-27T23:20:33.299Z,7.00
2017-10-27T23:23:01.285Z,7.00
2017-10-27T23:25:29.554Z,6.20
2017-10-27T23:27:57.459Z,6.60
2017-10-27T23:30:25.355Z,6.40
2017-10-27T23:32:53.617Z,6.80
2017-10-27T23:35:21.118Z,7.27
2017-10-27T23:37:49.384Z,6.83
2017-10-27T23:40:17.647Z,7.40
2017-10-27T23:42:45.135Z,7.13
2017-10-27T23:45:12.628Z,7.33
2017-10-27T23:47:40.123Z,7.10
2017-10-27T23:50:08.380Z,7.10
2017-10-27T23:52:35.884Z,7.07
2017-10-27T23:55:03.795Z,7.30
2017-10-27T23:57:31.286Z,7.77
2017-10-27T23:59:59.175Z,6.50
